sensor_id;sensor_type;location;lat;lon;timestamp;temperature;humidity
42841;DHT22;28491;46.898;7.660;2023-02-15T00:01:44;0.80;15.10
42841;DHT22;28491;46.898;7.660;2023-02-15T00:04:13;1.00;17.50
42841;DHT22;28491;46.898;7.660;2023-02-15T00:06:39;1.10;12.80
42841;DHT22;28491;46.898;7.660;2023-02-15T00:09:04;1.20;12.80
42841;DHT22;28491;46.898;7.660;2023-02-15T00:11:30;1.20;10.30
42841;DHT22;28491;46.898;7.660;2023-02-15T00:14:13;1.40;10.60
42841;DHT22;28491;46.898;7.660;2023-02-15T00:16:40;1.10;6.80
42841;DHT22;28491;46.898;7.660;2023-02-15T00:19:07;1.00;11.00
42841;DHT22;28491;46.898;7.660;2023-02-15T00:21:34;0.80;12.30
42841;DHT22;28491;46.898;7.660;2023-02-15T00:24:01;0.90;15.70
42841;DHT22;28491;46.898;7.660;2023-02-15T00:26:28;1.00;15.10
42841;DHT22;28491;46.898;7.660;2023-02-15T00:28:55;0.90;15.30
42841;DHT22;28491;46.898;7.660;2023-02-15T00:31:21;0.80;19.60
42841;DHT22;28491;46.898;7.660;2023-02-15T00:33:47;0.80;19.50
42841;DHT22;28491;46.898;7.660;2023-02-15T00:36:12;0.70;23.20
42841;DHT22;28491;46.898;7.660;2023-02-15T00:38:38;0.70;21.20
42841;DHT22;28491;46.898;7.660;2023-02-15T00:41:06;0.60;22.10
42841;DHT22;28491;46.898;7.660;2023-02-15T00:43:33;0.50;24.70
42841;DHT22;28491;46.898;7.660;2023-02-15T00:45:59;0.60;25.40
42841;DHT22;28491;46.898;7.660;2023-02-15T00:48:25;0.40;27.70
42841;DHT22;28491;46.898;7.660;2023-02-15T00:50:53;0.50;28.80
42841;DHT22;28491;46.898;7.660;2023-02-15T00:53:20;0.50;27.70
42841;DHT22;28491;46.898;7.660;2023-02-15T00:55:46;0.50;27.20
42841;DHT22;28491;46.898;7.660;2023-02-15T00:58:13;0.50;27.70
42841;DHT22;28491;46.898;7.660;2023-02-15T01:00:40;0.50;26.60
42841;DHT22;28491;46.898;7.660;2023-02-15T01:03:06;0.50;27.50
42841;DHT22;28491;46.898;7.660;2023-02-15T01:05:32;0.70;24.70
42841;DHT22;28491;46.898;7.660;2023-02-15T01:07:58;0.70;20.70
42841;DHT22;28491;46.898;7.660;2023-02-15T01:10:25;0.70;22.80
42841;DHT22;28491;46.898;7.660;2023-02-15T01:12:52;0.70;23.50
42841;DHT22;28491;46.898;7.660;2023-02-15T01:15:18;0.70;23.90
42841;DHT22;28491;46.898;7.660;2023-02-15T01:17:44;0.70;20.40
42841;DHT22;28491;46.898;7.660;2023-02-15T01:20:15;0.80;18.10
42841;DHT22;28491;46.898;7.660;2023-02-15T01:22:40;0.80;17.70
42841;DHT22;28491;46.898;7.660;2023-02-15T01:25:06;0.80;17.40
42841;DHT22;28491;46.898;7.660;2023-02-15T01:27:32;1.00;15.20
42841;DHT22;28491;46.898;7.660;2023-02-15T01:30:00;1.00;16.20
42841;DHT22;28491;46.898;7.660;2023-02-15T01:32:26;1.00;16.20
42841;DHT22;28491;46.898;7.660;2023-02-15T01:34:52;0.90;14.40
42841;DHT22;28491;46.898;7.660;2023-02-15T01:37:18;0.80;18.60
42841;DHT22;28491;46.898;7.660;2023-02-15T01:39:43;0.90;18.90
42841;DHT22;28491;46.898;7.660;2023-02-15T01:42:12;0.90;17.40
42841;DHT22;28491;46.898;7.660;2023-02-15T01:44:55;0.70;16.10
42841;DHT22;28491;46.898;7.660;2023-02-15T01:52:36;0.70;13.40
42841;DHT22;28491;46.898;7.660;2023-02-15T01:55:03;0.70;15.30
42841;DHT22;28491;46.898;7.660;2023-02-15T01:57:29;0.60;17.40
42841;DHT22;28491;46.898;7.660;2023-02-15T01:59:57;0.60;22.60
42841;DHT22;28491;46.898;7.660;2023-02-15T02:02:24;0.40;22.40
42841;DHT22;28491;46.898;7.660;2023-02-15T02:04:52;0.30;25.30
42841;DHT22;28491;46.898;7.660;2023-02-15T02:07:24;0.40;26.00
42841;DHT22;28491;46.898;7.660;2023-02-15T02:09:52;0.30;25.20
42841;DHT22;28491;46.898;7.660;2023-02-15T02:12:18;0.10;27.60
42841;DHT22;28491;46.898;7.660;2023-02-15T02:14:44;0.10;29.10
42841;DHT22;28491;46.898;7.660;2023-02-15T02:17:46;0.20;31.40
42841;DHT22;28491;46.898;7.660;2023-02-15T02:20:40;0.00;27.90
42841;DHT22;28491;46.898;7.660;2023-02-15T02:23:23;0.00;33.90
42841;DHT22;28491;46.898;7.660;2023-02-15T02:34:22;0.10;37.10
42841;DHT22;28491;46.898;7.660;2023-02-15T02:39:54;0.00;33.70
42841;DHT22;28491;46.898;7.660;2023-02-15T02:42:40;0.10;35.30
42841;DHT22;28491;46.898;7.660;2023-02-15T02:45:26;0.00;33.70
42841;DHT22;28491;46.898;7.660;2023-02-15T02:48:01;-0.10;36.70
42841;DHT22;28491;46.898;7.660;2023-02-15T02:50:30;0.00;35.10
42841;DHT22;28491;46.898;7.660;2023-02-15T02:52:57;0.00;32.50
42841;DHT22;28491;46.898;7.660;2023-02-15T02:55:41;-0.10;33.30
42841;DHT22;28491;46.898;7.660;2023-02-15T02:58:16;-0.10;38.10
42841;DHT22;28491;46.898;7.660;2023-02-15T03:00:53;-0.10;40.10
42841;DHT22;28491;46.898;7.660;2023-02-15T03:05:55;0.00;36.00
42841;DHT22;28491;46.898;7.660;2023-02-15T03:08:25;0.00;35.80
42841;DHT22;28491;46.898;7.660;2023-02-15T03:10:55;0.00;32.30
42841;DHT22;28491;46.898;7.660;2023-02-15T03:13:21;0.10;32.60
42841;DHT22;28491;46.898;7.660;2023-02-15T03:15:48;0.20;31.10
42841;DHT22;28491;46.898;7.660;2023-02-15T03:18:43;0.30;29.50
42841;DHT22;28491;46.898;7.660;2023-02-15T03:21:11;0.30;28.30
42841;DHT22;28491;46.898;7.660;2023-02-15T03:23:52;0.40;25.60
42841;DHT22;28491;46.898;7.660;2023-02-15T03:26:19;0.40;24.30
42841;DHT22;28491;46.898;7.660;2023-02-15T03:28:48;0.40;25.30
42841;DHT22;28491;46.898;7.660;2023-02-15T03:31:15;0.40;24.40
42841;DHT22;28491;46.898;7.660;2023-02-15T03:33:47;0.50;23.90
42841;DHT22;28491;46.898;7.660;2023-02-15T03:36:25;0.60;22.50
42841;DHT22;28491;46.898;7.660;2023-02-15T03:39:01;0.60;21.20
42841;DHT22;28491;46.898;7.660;2023-02-15T03:41:34;0.60;19.60
42841;DHT22;28491;46.898;7.660;2023-02-15T03:44:13;0.50;20.60
42841;DHT22;28491;46.898;7.660;2023-02-15T03:46:42;0.40;22.50
42841;DHT22;28491;46.898;7.660;2023-02-15T03:51:47;0.50;18.30
42841;DHT22;28491;46.898;7.660;2023-02-15T03:54:27;0.50;17.50
42841;DHT22;28491;46.898;7.660;2023-02-15T03:57:15;0.30;20.90
42841;DHT22;28491;46.898;7.660;2023-02-15T04:00:02;0.20;24.60
42841;DHT22;28491;46.898;7.660;2023-02-15T04:05:18;0.30;22.30
42841;DHT22;28491;46.898;7.660;2023-02-15T04:07:43;0.30;20.40
42841;DHT22;28491;46.898;7.660;2023-02-15T04:10:09;0.30;19.80
42841;DHT22;28491;46.898;7.660;2023-02-15T04:12:53;0.30;18.80
42841;DHT22;28491;46.898;7.660;2023-02-15T04:15:18;0.10;17.00
42841;DHT22;28491;46.898;7.660;2023-02-15T04:18:03;0.10;18.90
42841;DHT22;28491;46.898;7.660;2023-02-15T04:20:28;0.20;17.40
42841;DHT22;28491;46.898;7.660;2023-02-15T04:23:13;0.30;18.40
42841;DHT22;28491;46.898;7.660;2023-02-15T04:25:57;0.30;16.30
42841;DHT22;28491;46.898;7.660;2023-02-15T04:28:22;0.20;16.30
42841;DHT22;28491;46.898;7.660;2023-02-15T04:30:48;0.20;17.20
42841;DHT22;28491;46.898;7.660;2023-02-15T04:33:13;0.20;17.30
42841;DHT22;28491;46.898;7.660;2023-02-15T04:35:39;0.20;17.60
42841;DHT22;28491;46.898;7.660;2023-02-15T04:38:04;0.20;18.20
42841;DHT22;28491;46.898;7.660;2023-02-15T04:40:30;0.20;20.80
42841;DHT22;28491;46.898;7.660;2023-02-15T04:42:55;0.00;20.60
42841;DHT22;28491;46.898;7.660;2023-02-15T04:45:21;-0.10;20.30
42841;DHT22;28491;46.898;7.660;2023-02-15T04:47:46;-0.10;19.90
42841;DHT22;28491;46.898;7.660;2023-02-15T04:50:12;-0.10;19.60
42841;DHT22;28491;46.898;7.660;2023-02-15T04:52:37;-0.30;18.40
42841;DHT22;28491;46.898;7.660;2023-02-15T04:55:03;-0.50;23.50
42841;DHT22;28491;46.898;7.660;2023-02-15T04:57:29;-0.40;32.40
42841;DHT22;28491;46.898;7.660;2023-02-15T04:59:54;-0.40;28.30
42841;DHT22;28491;46.898;7.660;2023-02-15T05:02:20;-0.40;26.90
42841;DHT22;28491;46.898;7.660;2023-02-15T05:04:45;-0.50;24.60
42841;DHT22;28491;46.898;7.660;2023-02-15T05:07:11;-0.40;23.30
42841;DHT22;28491;46.898;7.660;2023-02-15T05:09:36;-0.40;22.20
42841;DHT22;28491;46.898;7.660;2023-02-15T05:12:02;-0.30;22.60
42841;DHT22;28491;46.898;7.660;2023-02-15T05:14:27;-0.50;25.70
42841;DHT22;28491;46.898;7.660;2023-02-15T05:16:53;-0.60;27.70
42841;DHT22;28491;46.898;7.660;2023-02-15T05:19:19;-0.70;32.60
42841;DHT22;28491;46.898;7.660;2023-02-15T05:21:45;-0.60;35.60
42841;DHT22;28491;46.898;7.660;2023-02-15T05:24:10;-0.50;33.00
42841;DHT22;28491;46.898;7.660;2023-02-15T05:26:54;-0.50;31.20
42841;DHT22;28491;46.898;7.660;2023-02-15T05:29:38;-0.40;29.40
42841;DHT22;28491;46.898;7.660;2023-02-15T05:32:04;-0.50;25.70
42841;DHT22;28491;46.898;7.660;2023-02-15T05:34:30;-0.60;27.60
42841;DHT22;28491;46.898;7.660;2023-02-15T05:36:55;-0.60;28.70
42841;DHT22;28491;46.898;7.660;2023-02-15T05:39:21;-0.80;28.60
42841;DHT22;28491;46.898;7.660;2023-02-15T05:41:46;-0.80;30.70
42841;DHT22;28491;46.898;7.660;2023-02-15T05:44:12;-0.80;30.80
42841;DHT22;28491;46.898;7.660;2023-02-15T05:46:37;-0.80;32.30
42841;DHT22;28491;46.898;7.660;2023-02-15T05:49:03;-0.70;32.60
42841;DHT22;28491;46.898;7.660;2023-02-15T05:51:28;-0.80;29.30
42841;DHT22;28491;46.898;7.660;2023-02-15T05:53:54;-0.70;33.30
42841;DHT22;28491;46.898;7.660;2023-02-15T05:56:19;-0.50;30.40
42841;DHT22;28491;46.898;7.660;2023-02-15T05:58:45;-0.50;25.40
42841;DHT22;28491;46.898;7.660;2023-02-15T06:01:12;-0.50;26.20
42841;DHT22;28491;46.898;7.660;2023-02-15T06:03:38;-0.50;27.50
42841;DHT22;28491;46.898;7.660;2023-02-15T06:06:03;-0.40;24.70
42841;DHT22;28491;46.898;7.660;2023-02-15T06:08:30;-0.50;24.90
42841;DHT22;28491;46.898;7.660;2023-02-15T06:10:56;-0.60;26.10
42841;DHT22;28491;46.898;7.660;2023-02-15T06:13:22;-0.60;26.40
42841;DHT22;28491;46.898;7.660;2023-02-15T06:15:47;-0.60;25.10
42841;DHT22;28491;46.898;7.660;2023-02-15T06:18:13;-0.60;25.90
42841;DHT22;28491;46.898;7.660;2023-02-15T06:20:38;-0.70;26.20
42841;DHT22;28491;46.898;7.660;2023-02-15T06:23:04;-0.60;28.00
42841;DHT22;28491;46.898;7.660;2023-02-15T06:25:29;-0.60;26.30
42841;DHT22;28491;46.898;7.660;2023-02-15T06:27:55;-0.50;25.40
42841;DHT22;28491;46.898;7.660;2023-02-15T06:30:20;-0.40;22.90
42841;DHT22;28491;46.898;7.660;2023-02-15T06:32:46;-0.50;19.80
42841;DHT22;28491;46.898;7.660;2023-02-15T06:35:12;-0.40;21.20
42841;DHT22;28491;46.898;7.660;2023-02-15T06:37:38;-0.50;21.20
42841;DHT22;28491;46.898;7.660;2023-02-15T06:40:04;-0.40;22.00
42841;DHT22;28491;46.898;7.660;2023-02-15T06:42:30;-0.50;20.40
42841;DHT22;28491;46.898;7.660;2023-02-15T06:44:56;-0.30;21.90
42841;DHT22;28491;46.898;7.660;2023-02-15T06:47:21;0.00;17.00
42841;DHT22;28491;46.898;7.660;2023-02-15T06:49:47;-0.20;12.20
42841;DHT22;28491;46.898;7.660;2023-02-15T06:52:12;-0.50;14.90
42841;DHT22;28491;46.898;7.660;2023-02-15T06:54:38;-0.80;19.60
42841;DHT22;28491;46.898;7.660;2023-02-15T06:57:03;-0.80;24.00
42841;DHT22;28491;46.898;7.660;2023-02-15T06:59:29;-0.80;24.90
42841;DHT22;28491;46.898;7.660;2023-02-15T07:01:54;-0.60;26.40
42841;DHT22;28491;46.898;7.660;2023-02-15T07:04:20;-0.40;22.40
42841;DHT22;28491;46.898;7.660;2023-02-15T07:06:45;-0.30;20.10
42841;DHT22;28491;46.898;7.660;2023-02-15T07:09:11;-0.30;17.90
42841;DHT22;28491;46.898;7.660;2023-02-15T07:11:38;-0.40;15.30
42841;DHT22;28491;46.898;7.660;2023-02-15T07:14:22;-0.40;16.70
42841;DHT22;28491;46.898;7.660;2023-02-15T07:16:48;-0.40;16.20
42841;DHT22;28491;46.898;7.660;2023-02-15T07:19:13;-0.40;17.60
42841;DHT22;28491;46.898;7.660;2023-02-15T07:21:38;-0.50;17.80
42841;DHT22;28491;46.898;7.660;2023-02-15T07:24:04;-0.50;19.80
42841;DHT22;28491;46.898;7.660;2023-02-15T07:26:31;-0.30;20.30
42841;DHT22;28491;46.898;7.660;2023-02-15T07:28:57;0.40;16.90
42841;DHT22;28491;46.898;7.660;2023-02-15T07:31:23;2.80;1.00
42841;DHT22;28491;46.898;7.660;2023-02-15T07:33:48;4.90;1.00
42841;DHT22;28491;46.898;7.660;2023-02-15T07:36:14;6.40;1.00
42841;DHT22;28491;46.898;7.660;2023-02-15T07:38:41;7.20;1.00
42841;DHT22;28491;46.898;7.660;2023-02-15T07:41:09;8.20;1.00
42841;DHT22;28491;46.898;7.660;2023-02-15T07:43:37;9.10;1.00
42841;DHT22;28491;46.898;7.660;2023-02-15T07:46:09;9.10;1.00
42841;DHT22;28491;46.898;7.660;2023-02-15T07:48:36;9.60;1.00
42841;DHT22;28491;46.898;7.660;2023-02-15T07:51:04;10.10;1.00
42841;DHT22;28491;46.898;7.660;2023-02-15T07:53:30;10.00;1.00
42841;DHT22;28491;46.898;7.660;2023-02-15T07:56:14;10.50;1.00
42841;DHT22;28491;46.898;7.660;2023-02-15T07:58:40;10.60;1.00
42841;DHT22;28491;46.898;7.660;2023-02-15T08:01:20;11.30;1.00
42841;DHT22;28491;46.898;7.660;2023-02-15T08:03:46;12.20;1.00
42841;DHT22;28491;46.898;7.660;2023-02-15T08:06:12;11.80;1.00
42841;DHT22;28491;46.898;7.660;2023-02-15T08:08:39;11.50;1.00
42841;DHT22;28491;46.898;7.660;2023-02-15T08:11:09;11.70;1.00
42841;DHT22;28491;46.898;7.660;2023-02-15T08:13:53;12.40;1.00
42841;DHT22;28491;46.898;7.660;2023-02-15T08:16:47;12.00;1.00
42841;DHT22;28491;46.898;7.660;2023-02-15T08:21:52;11.70;1.00
42841;DHT22;28491;46.898;7.660;2023-02-15T08:24:20;11.50;1.00
42841;DHT22;28491;46.898;7.660;2023-02-15T08:26:47;11.30;1.00
42841;DHT22;28491;46.898;7.660;2023-02-15T08:29:14;12.30;1.00
42841;DHT22;28491;46.898;7.660;2023-02-15T08:31:41;13.10;1.00
42841;DHT22;28491;46.898;7.660;2023-02-15T08:34:08;12.90;1.00
42841;DHT22;28491;46.898;7.660;2023-02-15T08:36:34;13.10;1.00
42841;DHT22;28491;46.898;7.660;2023-02-15T08:39:04;13.70;1.00
42841;DHT22;28491;46.898;7.660;2023-02-15T08:41:32;13.40;1.00
42841;DHT22;28491;46.898;7.660;2023-02-15T08:44:01;12.80;1.00
42841;DHT22;28491;46.898;7.660;2023-02-15T08:46:30;13.40;1.00
42841;DHT22;28491;46.898;7.660;2023-02-15T08:48:57;13.20;1.00
42841;DHT22;28491;46.898;7.660;2023-02-15T08:51:28;13.90;1.00
42841;DHT22;28491;46.898;7.660;2023-02-15T08:53:56;14.40;1.00
42841;DHT22;28491;46.898;7.660;2023-02-15T08:56:25;13.80;1.00
42841;DHT22;28491;46.898;7.660;2023-02-15T08:58:51;13.90;1.00
42841;DHT22;28491;46.898;7.660;2023-02-15T09:01:19;13.90;1.00
42841;DHT22;28491;46.898;7.660;2023-02-15T09:03:50;15.10;1.00
42841;DHT22;28491;46.898;7.660;2023-02-15T09:06:17;15.50;1.00
42841;DHT22;28491;46.898;7.660;2023-02-15T09:08:43;15.80;1.00
42841;DHT22;28491;46.898;7.660;2023-02-15T09:11:17;15.30;1.00
42841;DHT22;28491;46.898;7.660;2023-02-15T09:13:49;15.90;1.00
42841;DHT22;28491;46.898;7.660;2023-02-15T09:16:16;16.70;1.00
42841;DHT22;28491;46.898;7.660;2023-02-15T09:18:42;16.90;1.00
42841;DHT22;28491;46.898;7.660;2023-02-15T09:21:14;16.50;1.00
42841;DHT22;28491;46.898;7.660;2023-02-15T09:23:41;16.20;1.00
42841;DHT22;28491;46.898;7.660;2023-02-15T09:26:09;16.60;1.00
42841;DHT22;28491;46.898;7.660;2023-02-15T09:28:35;16.50;1.00
42841;DHT22;28491;46.898;7.660;2023-02-15T09:31:12;16.10;1.00
42841;DHT22;28491;46.898;7.660;2023-02-15T09:33:39;16.20;1.00
42841;DHT22;28491;46.898;7.660;2023-02-15T09:36:05;16.30;1.00
42841;DHT22;28491;46.898;7.660;2023-02-15T09:38:31;16.00;1.00
42841;DHT22;28491;46.898;7.660;2023-02-15T09:42:00;15.60;1.00
42841;DHT22;28491;46.898;7.660;2023-02-15T09:44:25;15.70;1.00
42841;DHT22;28491;46.898;7.660;2023-02-15T09:58:20;14.20;1.00
42841;DHT22;28491;46.898;7.660;2023-02-15T10:01:06;13.90;1.00
42841;DHT22;28491;46.898;7.660;2023-02-15T10:03:54;13.60;1.00
42841;DHT22;28491;46.898;7.660;2023-02-15T10:12:49;13.00;1.00
42841;DHT22;28491;46.898;7.660;2023-02-15T10:15:26;13.00;1.00
42841;DHT22;28491;46.898;7.660;2023-02-15T10:18:04;12.80;1.00
42841;DHT22;28491;46.898;7.660;2023-02-15T10:20:49;13.00;1.00
42841;DHT22;28491;46.898;7.660;2023-02-15T10:26:21;13.70;1.00
42841;DHT22;28491;46.898;7.660;2023-02-15T10:28:57;14.00;1.00
42841;DHT22;28491;46.898;7.660;2023-02-15T10:31:41;14.10;1.00
42841;DHT22;28491;46.898;7.660;2023-02-15T10:34:20;14.20;1.00
42841;DHT22;28491;46.898;7.660;2023-02-15T10:45:28;14.60;1.00
42841;DHT22;28491;46.898;7.660;2023-02-15T10:51:00;14.40;1.00
42841;DHT22;28491;46.898;7.660;2023-02-15T10:54:00;14.70;1.00
42841;DHT22;28491;46.898;7.660;2023-02-15T10:59:24;14.70;1.00
42841;DHT22;28491;46.898;7.660;2023-02-15T11:01:58;14.60;1.00
42841;DHT22;28491;46.898;7.660;2023-02-15T11:07:38;14.60;1.00
42841;DHT22;28491;46.898;7.660;2023-02-15T11:12:49;14.60;1.00
42841;DHT22;28491;46.898;7.660;2023-02-15T11:15:33;14.60;1.00
42841;DHT22;28491;46.898;7.660;2023-02-15T11:23:46;14.50;1.00
42841;DHT22;28491;46.898;7.660;2023-02-15T11:26:29;14.60;1.00
42841;DHT22;28491;46.898;7.660;2023-02-15T11:29:32;14.60;1.00
42841;DHT22;28491;46.898;7.660;2023-02-15T11:32:23;14.60;1.00
42841;DHT22;28491;46.898;7.660;2023-02-15T11:35:18;14.70;1.00
42841;DHT22;28491;46.898;7.660;2023-02-15T11:37:54;14.80;1.00
42841;DHT22;28491;46.898;7.660;2023-02-15T11:40:32;14.80;1.00
42841;DHT22;28491;46.898;7.660;2023-02-15T11:43:03;14.90;1.00
42841;DHT22;28491;46.898;7.660;2023-02-15T11:45:34;14.80;1.00
42841;DHT22;28491;46.898;7.660;2023-02-15T11:48:04;14.80;1.00
42841;DHT22;28491;46.898;7.660;2023-02-15T11:50:33;14.60;1.00
42841;DHT22;28491;46.898;7.660;2023-02-15T11:53:03;14.60;1.00
42841;DHT22;28491;46.898;7.660;2023-02-15T11:55:30;14.70;1.00
42841;DHT22;28491;46.898;7.660;2023-02-15T11:58:18;14.70;1.00
42841;DHT22;28491;46.898;7.660;2023-02-15T12:00:49;14.90;1.00
42841;DHT22;28491;46.898;7.660;2023-02-15T12:03:39;15.00;1.00
42841;DHT22;28491;46.898;7.660;2023-02-15T12:06:16;15.10;1.00
42841;DHT22;28491;46.898;7.660;2023-02-15T12:08:48;15.00;1.00
42841;DHT22;28491;46.898;7.660;2023-02-15T12:11:20;14.90;1.00
42841;DHT22;28491;46.898;7.660;2023-02-15T12:13:59;14.90;1.00
42841;DHT22;28491;46.898;7.660;2023-02-15T12:16:26;14.60;1.00
42841;DHT22;28491;46.898;7.660;2023-02-15T12:18:54;14.70;1.00
42841;DHT22;28491;46.898;7.660;2023-02-15T12:21:28;14.80;1.00
42841;DHT22;28491;46.898;7.660;2023-02-15T12:24:02;14.90;1.00
42841;DHT22;28491;46.898;7.660;2023-02-15T12:26:31;15.00;1.00
42841;DHT22;28491;46.898;7.660;2023-02-15T12:29:16;15.10;1.00
42841;DHT22;28491;46.898;7.660;2023-02-15T12:31:45;15.20;1.00
42841;DHT22;28491;46.898;7.660;2023-02-15T12:36:48;15.30;1.00
42841;DHT22;28491;46.898;7.660;2023-02-15T12:39:24;15.30;1.00
42841;DHT22;28491;46.898;7.660;2023-02-15T12:47:21;15.10;1.00
42841;DHT22;28491;46.898;7.660;2023-02-15T12:50:11;15.20;1.00
42841;DHT22;28491;46.898;7.660;2023-02-15T12:52:43;15.20;1.00
42841;DHT22;28491;46.898;7.660;2023-02-15T12:55:29;15.20;1.00
42841;DHT22;28491;46.898;7.660;2023-02-15T12:58:29;15.30;1.00
42841;DHT22;28491;46.898;7.660;2023-02-15T13:01:16;15.20;1.00
42841;DHT22;28491;46.898;7.660;2023-02-15T13:06:23;15.30;1.00
42841;DHT22;28491;46.898;7.660;2023-02-15T13:08:54;15.20;1.00
42841;DHT22;28491;46.898;7.660;2023-02-15T13:11:30;15.10;1.00
42841;DHT22;28491;46.898;7.660;2023-02-15T13:14:02;15.00;1.00
42841;DHT22;28491;46.898;7.660;2023-02-15T13:16:37;15.00;1.00
42841;DHT22;28491;46.898;7.660;2023-02-15T13:19:14;14.90;1.00
42841;DHT22;28491;46.898;7.660;2023-02-15T13:21:44;14.50;1.00
42841;DHT22;28491;46.898;7.660;2023-02-15T13:25:03;15.00;1.00
42841;DHT22;28491;46.898;7.660;2023-02-15T13:27:16;15.00;1.00
42841;DHT22;28491;46.898;7.660;2023-02-15T13:29:49;15.10;1.00
42841;DHT22;28491;46.898;7.660;2023-02-15T13:32:31;15.00;1.00
42841;DHT22;28491;46.898;7.660;2023-02-15T13:35:00;15.00;1.00
42841;DHT22;28491;46.898;7.660;2023-02-15T13:40:41;15.40;1.00
42841;DHT22;28491;46.898;7.660;2023-02-15T13:43:43;15.40;1.00
42841;DHT22;28491;46.898;7.660;2023-02-15T13:46:23;15.40;1.00
42841;DHT22;28491;46.898;7.660;2023-02-15T13:49:09;15.40;1.00
42841;DHT22;28491;46.898;7.660;2023-02-15T13:57:39;15.30;1.00
42841;DHT22;28491;46.898;7.660;2023-02-15T14:11:48;15.00;1.00
42841;DHT22;28491;46.898;7.660;2023-02-15T14:20:31;15.00;1.00
42841;DHT22;28491;46.898;7.660;2023-02-15T14:25:53;15.00;1.00
42841;DHT22;28491;46.898;7.660;2023-02-15T14:28:43;15.10;1.00
42841;DHT22;28491;46.898;7.660;2023-02-15T14:31:09;15.10;1.00
42841;DHT22;28491;46.898;7.660;2023-02-15T14:33:55;15.00;1.00
42841;DHT22;28491;46.898;7.660;2023-02-15T14:36:22;15.10;1.00
42841;DHT22;28491;46.898;7.660;2023-02-15T14:39:06;15.20;1.00
42841;DHT22;28491;46.898;7.660;2023-02-15T14:42:02;15.20;1.00
42841;DHT22;28491;46.898;7.660;2023-02-15T14:44:37;15.30;1.00
42841;DHT22;28491;46.898;7.660;2023-02-15T14:47:18;15.20;1.00
42841;DHT22;28491;46.898;7.660;2023-02-15T14:49:47;14.90;1.00
42841;DHT22;28491;46.898;7.660;2023-02-15T14:52:13;15.00;1.00
42841;DHT22;28491;46.898;7.660;2023-02-15T14:59:54;15.00;1.00
42841;DHT22;28491;46.898;7.660;2023-02-15T15:02:47;15.00;1.00
42841;DHT22;28491;46.898;7.660;2023-02-15T15:05:35;15.00;1.00
42841;DHT22;28491;46.898;7.660;2023-02-15T15:08:22;14.90;1.00
42841;DHT22;28491;46.898;7.660;2023-02-15T15:10:50;14.70;1.00
42841;DHT22;28491;46.898;7.660;2023-02-15T15:13:37;14.60;1.00
42841;DHT22;28491;46.898;7.660;2023-02-15T15:17:09;14.50;1.00
42841;DHT22;28491;46.898;7.660;2023-02-15T15:19:11;14.40;1.00
42841;DHT22;28491;46.898;7.660;2023-02-15T15:38:47;13.80;1.00
42841;DHT22;28491;46.898;7.660;2023-02-15T15:47:16;13.20;1.00
42841;DHT22;28491;46.898;7.660;2023-02-15T15:49:46;13.00;1.00
42841;DHT22;28491;46.898;7.660;2023-02-15T15:52:20;12.80;1.00
42841;DHT22;28491;46.898;7.660;2023-02-15T15:54:50;12.50;1.00
42841;DHT22;28491;46.898;7.660;2023-02-15T15:57:31;12.10;1.00
42841;DHT22;28491;46.898;7.660;2023-02-15T15:59:58;11.70;1.00
42841;DHT22;28491;46.898;7.660;2023-02-15T16:02:27;11.60;1.00
42841;DHT22;28491;46.898;7.660;2023-02-15T16:04:53;11.60;1.00
42841;DHT22;28491;46.898;7.660;2023-02-15T16:12:20;11.30;1.00
42841;DHT22;28491;46.898;7.660;2023-02-15T16:14:46;11.10;1.00
42841;DHT22;28491;46.898;7.660;2023-02-15T16:17:27;10.90;1.00
42841;DHT22;28491;46.898;7.660;2023-02-15T16:20:16;10.70;1.00
42841;DHT22;28491;46.898;7.660;2023-02-15T16:22:45;10.50;1.00
42841;DHT22;28491;46.898;7.660;2023-02-15T16:28:11;10.20;1.00
42841;DHT22;28491;46.898;7.660;2023-02-15T16:30:38;9.90;1.00
42841;DHT22;28491;46.898;7.660;2023-02-15T16:33:06;9.70;1.00
42841;DHT22;28491;46.898;7.660;2023-02-15T16:35:32;9.60;1.00
42841;DHT22;28491;46.898;7.660;2023-02-15T16:37:58;9.40;1.00
42841;DHT22;28491;46.898;7.660;2023-02-15T16:42:56;9.50;1.00
42841;DHT22;28491;46.898;7.660;2023-02-15T16:45:24;9.30;1.00
42841;DHT22;28491;46.898;7.660;2023-02-15T16:47:53;9.10;1.00
42841;DHT22;28491;46.898;7.660;2023-02-15T16:50:23;9.00;1.00
42841;DHT22;28491;46.898;7.660;2023-02-15T16:52:49;8.80;1.00
42841;DHT22;28491;46.898;7.660;2023-02-15T16:55:28;8.60;1.00
42841;DHT22;28491;46.898;7.660;2023-02-15T16:58:00;8.10;1.00
42841;DHT22;28491;46.898;7.660;2023-02-15T17:00:31;7.80;1.00
42841;DHT22;28491;46.898;7.660;2023-02-15T17:03:03;7.70;1.00
42841;DHT22;28491;46.898;7.660;2023-02-15T17:08:15;7.50;1.00
42841;DHT22;28491;46.898;7.660;2023-02-15T17:10:45;7.40;1.00
42841;DHT22;28491;46.898;7.660;2023-02-15T17:13:15;7.40;1.00
42841;DHT22;28491;46.898;7.660;2023-02-15T17:15:44;7.40;1.00
42841;DHT22;28491;46.898;7.660;2023-02-15T17:18:11;7.50;1.00
42841;DHT22;28491;46.898;7.660;2023-02-15T17:20:39;7.30;1.00
42841;DHT22;28491;46.898;7.660;2023-02-15T17:23:17;7.10;1.00
42841;DHT22;28491;46.898;7.660;2023-02-15T17:25:45;7.00;1.00
42841;DHT22;28491;46.898;7.660;2023-02-15T17:28:19;6.80;1.00
42841;DHT22;28491;46.898;7.660;2023-02-15T17:30:46;6.70;1.00
42841;DHT22;28491;46.898;7.660;2023-02-15T17:33:41;6.60;1.00
42841;DHT22;28491;46.898;7.660;2023-02-15T17:36:18;6.50;1.00
42841;DHT22;28491;46.898;7.660;2023-02-15T17:39:20;6.30;1.00
42841;DHT22;28491;46.898;7.660;2023-02-15T17:41:47;6.10;1.00
42841;DHT22;28491;46.898;7.660;2023-02-15T17:44:13;6.20;1.00
42841;DHT22;28491;46.898;7.660;2023-02-15T17:46:41;6.20;1.00
42841;DHT22;28491;46.898;7.660;2023-02-15T17:49:10;6.10;1.00
42841;DHT22;28491;46.898;7.660;2023-02-15T17:51:39;5.90;1.00
42841;DHT22;28491;46.898;7.660;2023-02-15T17:54:04;5.60;1.00
42841;DHT22;28491;46.898;7.660;2023-02-15T17:56:48;5.70;1.00
42841;DHT22;28491;46.898;7.660;2023-02-15T17:59:14;5.50;1.00
42841;DHT22;28491;46.898;7.660;2023-02-15T18:01:46;5.40;1.00
42841;DHT22;28491;46.898;7.660;2023-02-15T18:04:32;5.40;1.00
42841;DHT22;28491;46.898;7.660;2023-02-15T18:07:17;5.30;1.00
42841;DHT22;28491;46.898;7.660;2023-02-15T18:10:24;5.60;1.00
42841;DHT22;28491;46.898;7.660;2023-02-15T18:13:07;5.60;1.00
42841;DHT22;28491;46.898;7.660;2023-02-15T18:15:33;5.60;1.00
42841;DHT22;28491;46.898;7.660;2023-02-15T18:17:59;5.40;1.00
42841;DHT22;28491;46.898;7.660;2023-02-15T18:20:30;5.30;1.00
42841;DHT22;28491;46.898;7.660;2023-02-15T18:22:56;5.20;1.00
42841;DHT22;28491;46.898;7.660;2023-02-15T18:25:22;5.20;1.00
42841;DHT22;28491;46.898;7.660;2023-02-15T18:27:49;5.20;1.00
42841;DHT22;28491;46.898;7.660;2023-02-15T18:30:19;5.10;1.00
42841;DHT22;28491;46.898;7.660;2023-02-15T18:32:46;5.00;1.00
42841;DHT22;28491;46.898;7.660;2023-02-15T18:35:14;5.10;1.00
42841;DHT22;28491;46.898;7.660;2023-02-15T18:37:40;5.10;1.00
42841;DHT22;28491;46.898;7.660;2023-02-15T18:40:23;5.00;1.00
42841;DHT22;28491;46.898;7.660;2023-02-15T18:42:49;5.10;1.00
42841;DHT22;28491;46.898;7.660;2023-02-15T18:45:16;5.20;1.00
42841;DHT22;28491;46.898;7.660;2023-02-15T18:47:42;5.20;1.00
42841;DHT22;28491;46.898;7.660;2023-02-15T18:50:08;5.10;1.00